sensor_id;sensor_type;location;lat;lon;timestamp;P1;durP1;ratioP1;P2;durP2;ratioP2
23684;SDS011;12020;51.384;6.908;2023-03-14T00:04:14;6.10;;;1.60;;
23684;SDS011;12020;51.384;6.908;2023-03-14T00:06:42;6.27;;;1.90;;
23684;SDS011;12020;51.384;6.908;2023-03-14T00:09:08;4.57;;;1.67;;
23684;SDS011;12020;51.384;6.908;2023-03-14T00:11:35;6.83;;;2.30;;
23684;SDS011;12020;51.384;6.908;2023-03-14T00:14:01;3.20;;;1.27;;
23684;SDS011;12020;51.384;6.908;2023-03-14T00:16:27;6.33;;;1.60;;
23684;SDS011;12020;51.384;6.908;2023-03-14T00:18:53;3.40;;;1.57;;
23684;SDS011;12020;51.384;6.908;2023-03-14T00:21:19;5.13;;;1.40;;
23684;SDS011;12020;51.384;6.908;2023-03-14T00:23:45;5.60;;;1.60;;
23684;SDS011;12020;51.384;6.908;2023-03-14T00:26:13;4.93;;;1.80;;
23684;SDS011;12020;51.384;6.908;2023-03-14T00:28:40;2.93;;;1.40;;
23684;SDS011;12020;51.384;6.908;2023-03-14T00:31:07;4.40;;;1.93;;
23684;SDS011;12020;51.384;6.908;2023-03-14T00:33:35;6.03;;;1.70;;
23684;SDS011;12020;51.384;6.908;2023-03-14T00:36:03;5.50;;;1.50;;
23684;SDS011;12020;51.384;6.908;2023-03-14T00:38:35;4.93;;;1.60;;
23684;SDS011;12020;51.384;6.908;2023-03-14T00:41:21;6.40;;;1.90;;
23684;SDS011;12020;51.384;6.908;2023-03-14T00:43:57;7.27;;;1.60;;
23684;SDS011;12020;51.384;6.908;2023-03-14T00:46:24;5.97;;;1.37;;
23684;SDS011;12020;51.384;6.908;2023-03-14T00:48:50;5.63;;;1.73;;
23684;SDS011;12020;51.384;6.908;2023-03-14T00:51:19;6.10;;;1.53;;
23684;SDS011;12020;51.384;6.908;2023-03-14T00:53:44;3.33;;;0.90;;
23684;SDS011;12020;51.384;6.908;2023-03-14T00:56:11;5.00;;;0.80;;
23684;SDS011;12020;51.384;6.908;2023-03-14T00:58:39;2.20;;;0.70;;
23684;SDS011;12020;51.384;6.908;2023-03-14T01:01:06;1.77;;;0.60;;
23684;SDS011;12020;51.384;6.908;2023-03-14T01:03:39;2.70;;;0.47;;
23684;SDS011;12020;51.384;6.908;2023-03-14T01:08:44;2.50;;;0.83;;
23684;SDS011;12020;51.384;6.908;2023-03-14T01:11:12;3.53;;;0.90;;
23684;SDS011;12020;51.384;6.908;2023-03-14T01:13:40;4.03;;;1.05;;
23684;SDS011;12020;51.384;6.908;2023-03-14T01:18:37;3.67;;;1.20;;
23684;SDS011;12020;51.384;6.908;2023-03-14T01:21:10;3.40;;;1.20;;
23684;SDS011;12020;51.384;6.908;2023-03-14T01:23:54;3.03;;;1.15;;
23684;SDS011;12020;51.384;6.908;2023-03-14T01:26:24;3.35;;;1.40;;
23684;SDS011;12020;51.384;6.908;2023-03-14T01:28:57;3.80;;;1.20;;
23684;SDS011;12020;51.384;6.908;2023-03-14T01:31:24;4.53;;;1.40;;
23684;SDS011;12020;51.384;6.908;2023-03-14T01:33:50;3.93;;;1.30;;
23684;SDS011;12020;51.384;6.908;2023-03-14T01:38:57;4.43;;;1.40;;
23684;SDS011;12020;51.384;6.908;2023-03-14T01:41:24;4.97;;;1.40;;
23684;SDS011;12020;51.384;6.908;2023-03-14T01:43:51;4.90;;;1.35;;
23684;SDS011;12020;51.384;6.908;2023-03-14T01:46:19;4.50;;;1.30;;
23684;SDS011;12020;51.384;6.908;2023-03-14T01:51:30;5.68;;;1.40;;
23684;SDS011;12020;51.384;6.908;2023-03-14T01:54:07;6.70;;;1.70;;
23684;SDS011;12020;51.384;6.908;2023-03-14T01:56:38;5.78;;;1.40;;
23684;SDS011;12020;51.384;6.908;2023-03-14T01:59:08;3.72;;;1.23;;
23684;SDS011;12020;51.384;6.908;2023-03-14T02:01:36;4.75;;;1.33;;
23684;SDS011;12020;51.384;6.908;2023-03-14T02:04:04;5.20;;;1.25;;
23684;SDS011;12020;51.384;6.908;2023-03-14T02:06:34;4.22;;;1.40;;
23684;SDS011;12020;51.384;6.908;2023-03-14T02:09:16;3.60;;;1.10;;
23684;SDS011;12020;51.384;6.908;2023-03-14T02:11:43;4.63;;;1.23;;
23684;SDS011;12020;51.384;6.908;2023-03-14T02:14:13;3.65;;;1.23;;
23684;SDS011;12020;51.384;6.908;2023-03-14T02:16:50;4.50;;;1.27;;
23684;SDS011;12020;51.384;6.908;2023-03-14T02:19:17;5.18;;;1.20;;
23684;SDS011;12020;51.384;6.908;2023-03-14T02:21:54;7.55;;;1.50;;
23684;SDS011;12020;51.384;6.908;2023-03-14T02:27:15;5.85;;;1.58;;
23684;SDS011;12020;51.384;6.908;2023-03-14T02:30:04;5.47;;;1.60;;
23684;SDS011;12020;51.384;6.908;2023-03-14T02:32:43;6.10;;;1.50;;
23684;SDS011;12020;51.384;6.908;2023-03-14T02:35:21;6.38;;;1.52;;
23684;SDS011;12020;51.384;6.908;2023-03-14T02:37:53;6.60;;;1.43;;
23684;SDS011;12020;51.384;6.908;2023-03-14T02:40:30;4.40;;;1.20;;
23684;SDS011;12020;51.384;6.908;2023-03-14T02:43:03;4.47;;;1.20;;
23684;SDS011;12020;51.384;6.908;2023-03-14T02:45:35;6.60;;;1.60;;
23684;SDS011;12020;51.384;6.908;2023-03-14T02:48:16;6.17;;;1.43;;
23684;SDS011;12020;51.384;6.908;2023-03-14T02:50:43;3.97;;;1.10;;
23684;SDS011;12020;51.384;6.908;2023-03-14T02:53:11;3.80;;;1.10;;
23684;SDS011;12020;51.384;6.908;2023-03-14T02:55:39;6.10;;;1.23;;
23684;SDS011;12020;51.384;6.908;2023-03-14T02:58:06;4.23;;;1.27;;
23684;SDS011;12020;51.384;6.908;2023-03-14T03:00:33;6.63;;;1.47;;
23684;SDS011;12020;51.384;6.908;2023-03-14T03:03:00;4.30;;;1.17;;
23684;SDS011;12020;51.384;6.908;2023-03-14T03:05:28;4.67;;;1.33;;
23684;SDS011;12020;51.384;6.908;2023-03-14T03:07:55;4.33;;;1.50;;
23684;SDS011;12020;51.384;6.908;2023-03-14T03:10:24;5.07;;;1.50;;
23684;SDS011;12020;51.384;6.908;2023-03-14T03:12:51;4.60;;;1.03;;
23684;SDS011;12020;51.384;6.908;2023-03-14T03:15:17;4.10;;;1.33;;
23684;SDS011;12020;51.384;6.908;2023-03-14T03:17:43;3.20;;;1.20;;
23684;SDS011;12020;51.384;6.908;2023-03-14T03:20:08;6.23;;;1.73;;
23684;SDS011;12020;51.384;6.908;2023-03-14T03:22:35;5.37;;;1.40;;
23684;SDS011;12020;51.384;6.908;2023-03-14T03:25:04;5.80;;;1.30;;
23684;SDS011;12020;51.384;6.908;2023-03-14T03:27:32;4.07;;;1.50;;
23684;SDS011;12020;51.384;6.908;2023-03-14T03:30:00;7.03;;;1.97;;
23684;SDS011;12020;51.384;6.908;2023-03-14T03:32:27;4.73;;;1.40;;
23684;SDS011;12020;51.384;6.908;2023-03-14T03:34:55;3.50;;;1.20;;
23684;SDS011;12020;51.384;6.908;2023-03-14T03:37:21;4.17;;;1.20;;
23684;SDS011;12020;51.384;6.908;2023-03-14T03:39:49;4.90;;;1.17;;
23684;SDS011;12020;51.384;6.908;2023-03-14T03:42:18;6.53;;;1.53;;
23684;SDS011;12020;51.384;6.908;2023-03-14T03:44:45;5.93;;;1.50;;
23684;SDS011;12020;51.384;6.908;2023-03-14T03:49:42;5.80;;;1.63;;
23684;SDS011;12020;51.384;6.908;2023-03-14T03:52:08;4.67;;;1.50;;
23684;SDS011;12020;51.384;6.908;2023-03-14T03:54:42;7.17;;;1.40;;
23684;SDS011;12020;51.384;6.908;2023-03-14T03:57:08;4.07;;;1.30;;
23684;SDS011;12020;51.384;6.908;2023-03-14T03:59:34;4.63;;;1.17;;
23684;SDS011;12020;51.384;6.908;2023-03-14T04:02:00;5.53;;;1.60;;
23684;SDS011;12020;51.384;6.908;2023-03-14T04:04:27;5.53;;;1.63;;
23684;SDS011;12020;51.384;6.908;2023-03-14T04:06:54;5.60;;;1.40;;
23684;SDS011;12020;51.384;6.908;2023-03-14T04:09:20;5.82;;;1.52;;
23684;SDS011;12020;51.384;6.908;2023-03-14T04:11:49;5.85;;;1.60;;
23684;SDS011;12020;51.384;6.908;2023-03-14T04:14:15;5.22;;;1.35;;
23684;SDS011;12020;51.384;6.908;2023-03-14T04:16:41;4.22;;;1.40;;
23684;SDS011;12020;51.384;6.908;2023-03-14T04:19:07;3.13;;;1.27;;
23684;SDS011;12020;51.384;6.908;2023-03-14T04:21:33;4.10;;;1.13;;
23684;SDS011;12020;51.384;6.908;2023-03-14T04:23:59;3.83;;;0.82;;
23684;SDS011;12020;51.384;6.908;2023-03-14T04:26:25;4.07;;;1.08;;
23684;SDS011;12020;51.384;6.908;2023-03-14T04:28:51;4.80;;;1.10;;
23684;SDS011;12020;51.384;6.908;2023-03-14T04:31:17;2.47;;;0.70;;
23684;SDS011;12020;51.384;6.908;2023-03-14T04:33:45;1.23;;;0.60;;
23684;SDS011;12020;51.384;6.908;2023-03-14T04:36:11;2.80;;;0.63;;
23684;SDS011;12020;51.384;6.908;2023-03-14T04:38:37;2.92;;;0.70;;
23684;SDS011;12020;51.384;6.908;2023-03-14T04:41:03;2.43;;;0.80;;
23684;SDS011;12020;51.384;6.908;2023-03-14T04:43:32;2.20;;;0.63;;
23684;SDS011;12020;51.384;6.908;2023-03-14T04:45:59;1.40;;;0.60;;
23684;SDS011;12020;51.384;6.908;2023-03-14T04:48:26;2.00;;;0.85;;
23684;SDS011;12020;51.384;6.908;2023-03-14T04:51:05;1.83;;;0.65;;
23684;SDS011;12020;51.384;6.908;2023-03-14T04:53:31;2.03;;;0.70;;
23684;SDS011;12020;51.384;6.908;2023-03-14T04:55:57;2.20;;;0.80;;
23684;SDS011;12020;51.384;6.908;2023-03-14T04:58:23;1.95;;;0.70;;
23684;SDS011;12020;51.384;6.908;2023-03-14T05:00:50;1.38;;;0.43;;
23684;SDS011;12020;51.384;6.908;2023-03-14T05:03:18;1.80;;;0.60;;
23684;SDS011;12020;51.384;6.908;2023-03-14T05:05:45;2.35;;;0.60;;
23684;SDS011;12020;51.384;6.908;2023-03-14T05:08:17;2.77;;;0.60;;
23684;SDS011;12020;51.384;6.908;2023-03-14T05:10:51;1.63;;;0.70;;
23684;SDS011;12020;51.384;6.908;2023-03-14T05:13:29;1.55;;;0.40;;
23684;SDS011;12020;51.384;6.908;2023-03-14T05:16:06;1.27;;;0.43;;
23684;SDS011;12020;51.384;6.908;2023-03-14T05:18:34;2.85;;;0.50;;
23684;SDS011;12020;51.384;6.908;2023-03-14T05:21:06;2.20;;;0.50;;
23684;SDS011;12020;51.384;6.908;2023-03-14T05:23:34;1.17;;;0.57;;
23684;SDS011;12020;51.384;6.908;2023-03-14T05:26:00;1.58;;;0.50;;
23684;SDS011;12020;51.384;6.908;2023-03-14T05:28:28;2.38;;;0.60;;
23684;SDS011;12020;51.384;6.908;2023-03-14T05:30:54;1.73;;;0.60;;
23684;SDS011;12020;51.384;6.908;2023-03-14T05:33:22;1.60;;;0.70;;
23684;SDS011;12020;51.384;6.908;2023-03-14T05:35:49;2.10;;;0.70;;
23684;SDS011;12020;51.384;6.908;2023-03-14T05:38:15;2.13;;;0.80;;
23684;SDS011;12020;51.384;6.908;2023-03-14T05:40:41;1.38;;;0.85;;
23684;SDS011;12020;51.384;6.908;2023-03-14T05:43:12;1.50;;;0.80;;
23684;SDS011;12020;51.384;6.908;2023-03-14T05:45:38;2.10;;;1.20;;
23684;SDS011;12020;51.384;6.908;2023-03-14T05:48:04;2.80;;;1.40;;
23684;SDS011;12020;51.384;6.908;2023-03-14T05:50:30;3.53;;;1.70;;
23684;SDS011;12020;51.384;6.908;2023-03-14T05:52:56;3.17;;;1.83;;
23684;SDS011;12020;51.384;6.908;2023-03-14T05:55:24;3.63;;;2.10;;
23684;SDS011;12020;51.384;6.908;2023-03-14T05:57:50;4.70;;;2.58;;
23684;SDS011;12020;51.384;6.908;2023-03-14T06:00:17;3.70;;;2.65;;
23684;SDS011;12020;51.384;6.908;2023-03-14T06:02:44;3.13;;;2.78;;
23684;SDS011;12020;51.384;6.908;2023-03-14T06:05:11;4.63;;;2.35;;
23684;SDS011;12020;51.384;6.908;2023-03-14T06:07:37;3.67;;;2.40;;
23684;SDS011;12020;51.384;6.908;2023-03-14T06:10:02;4.60;;;2.20;;
23684;SDS011;12020;51.384;6.908;2023-03-14T06:12:29;4.57;;;2.42;;
23684;SDS011;12020;51.384;6.908;2023-03-14T06:14:55;4.23;;;2.20;;
23684;SDS011;12020;51.384;6.908;2023-03-14T06:17:21;5.60;;;2.40;;
23684;SDS011;12020;51.384;6.908;2023-03-14T06:19:49;4.10;;;1.98;;
23684;SDS011;12020;51.384;6.908;2023-03-14T06:22:17;3.88;;;2.03;;
23684;SDS011;12020;51.384;6.908;2023-03-14T06:24:45;2.95;;;1.90;;
23684;SDS011;12020;51.384;6.908;2023-03-14T06:27:13;3.80;;;1.52;;
23684;SDS011;12020;51.384;6.908;2023-03-14T06:29:39;2.13;;;1.20;;
23684;SDS011;12020;51.384;6.908;2023-03-14T06:32:08;1.52;;;0.95;;
23684;SDS011;12020;51.384;6.908;2023-03-14T06:34:34;1.17;;;0.80;;
23684;SDS011;12020;51.384;6.908;2023-03-14T06:37:00;2.13;;;0.70;;
23684;SDS011;12020;51.384;6.908;2023-03-14T06:39:26;1.83;;;0.60;;
23684;SDS011;12020;51.384;6.908;2023-03-14T06:41:52;1.20;;;0.53;;
23684;SDS011;12020;51.384;6.908;2023-03-14T06:44:18;1.50;;;0.50;;
23684;SDS011;12020;51.384;6.908;2023-03-14T06:46:49;1.30;;;0.40;;
23684;SDS011;12020;51.384;6.908;2023-03-14T06:49:17;1.20;;;0.40;;
23684;SDS011;12020;51.384;6.908;2023-03-14T06:51:51;1.43;;;0.50;;
23684;SDS011;12020;51.384;6.908;2023-03-14T06:54:18;0.98;;;0.47;;
23684;SDS011;12020;51.384;6.908;2023-03-14T06:56:44;1.40;;;0.60;;
23684;SDS011;12020;51.384;6.908;2023-03-14T07:01:49;0.60;;;0.38;;
23684;SDS011;12020;51.384;6.908;2023-03-14T07:04:19;1.35;;;0.40;;
23684;SDS011;12020;51.384;6.908;2023-03-14T07:06:45;0.82;;;0.40;;
23684;SDS011;12020;51.384;6.908;2023-03-14T07:09:13;0.60;;;0.30;;
23684;SDS011;12020;51.384;6.908;2023-03-14T07:11:40;0.50;;;0.30;;
23684;SDS011;12020;51.384;6.908;2023-03-14T07:14:12;1.05;;;0.45;;
23684;SDS011;12020;51.384;6.908;2023-03-14T07:16:38;1.33;;;0.40;;
23684;SDS011;12020;51.384;6.908;2023-03-14T07:19:04;1.20;;;0.40;;
23684;SDS011;12020;51.384;6.908;2023-03-14T07:21:29;1.52;;;0.50;;
23684;SDS011;12020;51.384;6.908;2023-03-14T07:23:57;1.00;;;0.40;;
23684;SDS011;12020;51.384;6.908;2023-03-14T07:26:23;2.25;;;0.70;;
23684;SDS011;12020;51.384;6.908;2023-03-14T07:28:49;0.90;;;0.40;;
23684;SDS011;12020;51.384;6.908;2023-03-14T07:31:18;0.70;;;0.40;;
23684;SDS011;12020;51.384;6.908;2023-03-14T07:36:15;1.15;;;0.50;;
23684;SDS011;12020;51.384;6.908;2023-03-14T07:38:41;0.50;;;0.33;;
23684;SDS011;12020;51.384;6.908;2023-03-14T07:41:07;1.80;;;0.50;;
23684;SDS011;12020;51.384;6.908;2023-03-14T07:43:33;1.10;;;0.45;;
23684;SDS011;12020;51.384;6.908;2023-03-14T07:48:31;1.20;;;0.60;;
23684;SDS011;12020;51.384;6.908;2023-03-14T07:50:57;1.20;;;0.60;;
23684;SDS011;12020;51.384;6.908;2023-03-14T07:53:23;1.30;;;0.50;;
23684;SDS011;12020;51.384;6.908;2023-03-14T07:55:53;0.68;;;0.50;;
23684;SDS011;12020;51.384;6.908;2023-03-14T07:58:20;0.90;;;0.60;;
23684;SDS011;12020;51.384;6.908;2023-03-14T08:00:50;1.00;;;0.65;;
23684;SDS011;12020;51.384;6.908;2023-03-14T08:05:48;1.40;;;0.80;;
23684;SDS011;12020;51.384;6.908;2023-03-14T08:08:15;0.98;;;0.80;;
23684;SDS011;12020;51.384;6.908;2023-03-14T08:10:41;1.83;;;0.70;;
23684;SDS011;12020;51.384;6.908;2023-03-14T08:13:08;1.50;;;0.70;;
23684;SDS011;12020;51.384;6.908;2023-03-14T08:15:34;0.80;;;0.70;;
23684;SDS011;12020;51.384;6.908;2023-03-14T08:18:01;1.48;;;0.80;;
23684;SDS011;12020;51.384;6.908;2023-03-14T08:20:28;2.13;;;1.00;;
23684;SDS011;12020;51.384;6.908;2023-03-14T08:23:08;3.13;;;1.00;;
23684;SDS011;12020;51.384;6.908;2023-03-14T08:25:34;1.53;;;1.00;;
23684;SDS011;12020;51.384;6.908;2023-03-14T08:27:59;1.30;;;0.80;;
23684;SDS011;12020;51.384;6.908;2023-03-14T08:30:25;1.83;;;1.00;;
23684;SDS011;12020;51.384;6.908;2023-03-14T08:32:51;1.53;;;0.90;;
23684;SDS011;12020;51.384;6.908;2023-03-14T08:35:17;1.90;;;1.10;;
23684;SDS011;12020;51.384;6.908;2023-03-14T08:37:43;2.15;;;1.02;;
23684;SDS011;12020;51.384;6.908;2023-03-14T08:40:09;2.72;;;1.13;;
23684;SDS011;12020;51.384;6.908;2023-03-14T08:42:37;1.75;;;1.15;;
23684;SDS011;12020;51.384;6.908;2023-03-14T08:45:03;1.70;;;1.20;;
23684;SDS011;12020;51.384;6.908;2023-03-14T08:47:31;2.47;;;1.20;;
23684;SDS011;12020;51.384;6.908;2023-03-14T09:28:49;2.50;;;0.80;;
23684;SDS011;12020;51.384;6.908;2023-03-14T09:31:14;1.83;;;0.90;;
23684;SDS011;12020;51.384;6.908;2023-03-14T09:33:40;1.80;;;0.60;;
23684;SDS011;12020;51.384;6.908;2023-03-14T09:36:06;1.03;;;0.57;;
23684;SDS011;12020;51.384;6.908;2023-03-14T09:38:34;0.33;;;0.30;;
23684;SDS011;12020;51.384;6.908;2023-03-14T09:41:00;1.20;;;0.50;;
23684;SDS011;12020;51.384;6.908;2023-03-14T09:43:31;1.63;;;0.60;;
23684;SDS011;12020;51.384;6.908;2023-03-14T09:46:00;0.73;;;0.50;;
23684;SDS011;12020;51.384;6.908;2023-03-14T09:48:29;1.20;;;0.57;;
23684;SDS011;12020;51.384;6.908;2023-03-14T09:50:58;0.63;;;0.50;;
23684;SDS011;12020;51.384;6.908;2023-03-14T09:53:37;0.90;;;0.67;;
23684;SDS011;12020;51.384;6.908;2023-03-14T09:56:11;1.67;;;1.10;;
23684;SDS011;12020;51.384;6.908;2023-03-14T09:58:55;2.07;;;0.90;;
23684;SDS011;12020;51.384;6.908;2023-03-14T10:01:30;3.00;;;1.53;;
23684;SDS011;12020;51.384;6.908;2023-03-14T10:03:58;3.10;;;1.27;;
23684;SDS011;12020;51.384;6.908;2023-03-14T10:06:30;2.70;;;1.50;;
23684;SDS011;12020;51.384;6.908;2023-03-14T10:08:56;2.27;;;1.77;;
23684;SDS011;12020;51.384;6.908;2023-03-14T10:11:22;2.67;;;1.50;;
23684;SDS011;12020;51.384;6.908;2023-03-14T10:14:06;2.67;;;1.70;;
23684;SDS011;12020;51.384;6.908;2023-03-14T10:16:34;2.57;;;2.00;;
23684;SDS011;12020;51.384;6.908;2023-03-14T10:19:11;2.43;;;2.23;;
23684;SDS011;12020;51.384;6.908;2023-03-14T10:21:40;2.60;;;2.27;;
23684;SDS011;12020;51.384;6.908;2023-03-14T10:24:20;2.67;;;1.90;;
23684;SDS011;12020;51.384;6.908;2023-03-14T10:26:55;2.03;;;1.47;;
23684;SDS011;12020;51.384;6.908;2023-03-14T10:29:29;3.30;;;1.50;;
23684;SDS011;12020;51.384;6.908;2023-03-14T10:32:03;2.20;;;1.30;;
23684;SDS011;12020;51.384;6.908;2023-03-14T10:37:21;2.80;;;1.57;;
23684;SDS011;12020;51.384;6.908;2023-03-14T10:39:52;2.90;;;1.90;;
23684;SDS011;12020;51.384;6.908;2023-03-14T10:42:27;2.40;;;1.57;;
23684;SDS011;12020;51.384;6.908;2023-03-14T10:45:00;2.47;;;1.90;;
23684;SDS011;12020;51.384;6.908;2023-03-14T10:47:28;3.43;;;2.07;;
23684;SDS011;12020;51.384;6.908;2023-03-14T10:52:47;4.77;;;2.50;;
23684;SDS011;12020;51.384;6.908;2023-03-14T10:55:19;2.00;;;1.60;;
23684;SDS011;12020;51.384;6.908;2023-03-14T10:57:47;4.30;;;1.40;;
23684;SDS011;12020;51.384;6.908;2023-03-14T11:00:16;3.83;;;1.67;;
23684;SDS011;12020;51.384;6.908;2023-03-14T11:02:47;2.77;;;2.07;;
23684;SDS011;12020;51.384;6.908;2023-03-14T11:05:31;4.47;;;1.93;;
23684;SDS011;12020;51.384;6.908;2023-03-14T11:11:14;1.80;;;0.90;;
23684;SDS011;12020;51.384;6.908;2023-03-14T11:19:09;4.10;;;1.20;;
23684;SDS011;12020;51.384;6.908;2023-03-14T11:24:57;1.67;;;1.27;;
23684;SDS011;12020;51.384;6.908;2023-03-14T11:38:29;2.60;;;0.80;;
23684;SDS011;12020;51.384;6.908;2023-03-14T11:41:08;2.50;;;0.80;;
23684;SDS011;12020;51.384;6.908;2023-03-14T11:43:40;1.93;;;0.70;;
23684;SDS011;12020;51.384;6.908;2023-03-14T11:54:06;1.37;;;0.80;;
23684;SDS011;12020;51.384;6.908;2023-03-14T11:57:05;2.00;;;0.70;;
23684;SDS011;12020;51.384;6.908;2023-03-14T12:02:42;2.07;;;0.83;;
23684;SDS011;12020;51.384;6.908;2023-03-14T12:05:30;1.87;;;0.83;;
23684;SDS011;12020;51.384;6.908;2023-03-14T12:10:45;2.47;;;1.03;;
23684;SDS011;12020;51.384;6.908;2023-03-14T12:23:42;2.57;;;0.90;;
23684;SDS011;12020;51.384;6.908;2023-03-14T12:26:22;4.40;;;0.93;;
23684;SDS011;12020;51.384;6.908;2023-03-14T12:42:11;3.97;;;1.13;;
23684;SDS011;12020;51.384;6.908;2023-03-14T12:45:39;6.63;;;1.20;;
23684;SDS011;12020;51.384;6.908;2023-03-14T12:47:54;8.63;;;2.13;;
23684;SDS011;12020;51.384;6.908;2023-03-14T12:50:24;2.60;;;1.10;;
23684;SDS011;12020;51.384;6.908;2023-03-14T13:01:02;6.30;;;1.63;;
23684;SDS011;12020;51.384;6.908;2023-03-14T13:06:45;7.03;;;1.80;;
23684;SDS011;12020;51.384;6.908;2023-03-14T13:12:03;10.10;;;2.27;;
23684;SDS011;12020;51.384;6.908;2023-03-14T13:14:41;8.77;;;1.90;;
23684;SDS011;12020;51.384;6.908;2023-03-14T13:17:14;6.63;;;1.80;;
23684;SDS011;12020;51.384;6.908;2023-03-14T13:19:48;7.73;;;1.67;;
23684;SDS011;12020;51.384;6.908;2023-03-14T13:22:25;7.93;;;1.83;;
23684;SDS011;12020;51.384;6.908;2023-03-14T13:25:00;8.53;;;2.17;;
23684;SDS011;12020;51.384;6.908;2023-03-14T13:27:29;7.97;;;1.63;;
23684;SDS011;12020;51.384;6.908;2023-03-14T13:29:56;10.13;;;2.13;;
23684;SDS011;12020;51.384;6.908;2023-03-14T13:32:26;9.70;;;2.23;;
23684;SDS011;12020;51.384;6.908;2023-03-14T13:35:02;11.47;;;1.80;;
23684;SDS011;12020;51.384;6.908;2023-03-14T13:37:28;10.27;;;2.43;;
